createdAt,value
2023-04-02T00:00:35.352Z,17.30
2023-04-02T00:03:11.254Z,17.30
2023-04-02T00:05:51.386Z,17.30
2023-04-02T00:08:25.967Z,17.30
2023-04-02T00:10:59.391Z,17.30
2023-04-02T00:13:47.202Z,17.30
2023-04-02T00:16:18.315Z,17.30
2023-04-02T00:18:50.037Z,17.30
2023-04-02T00:21:24.565Z,17.30
2023-04-02T00:23:55.623Z,17.30
2023-04-02T00:26:35.292Z,17.30
2023-04-02T00:29:05.510Z,17.30
2023-04-02T00:31:35.559Z,17.30
2023-04-02T00:34:05.134Z,17.20
2023-04-02T00:36:53.118Z,17.30
2023-04-02T00:39:24.824Z,17.30
2023-04-02T00:41:56.989Z,17.30
2023-04-02T00:44:25.062Z,17.30
2023-04-02T00:46:53.265Z,17.30
2023-04-02T00:49:33.718Z,17.30
2023-04-02T00:52:05.322Z,17.20
2023-04-02T00:54:37.113Z,17.30
2023-04-02T00:57:05.693Z,17.20
2023-04-02T00:59:40.127Z,17.10
2023-04-02T01:02:18.970Z,17.10
2023-04-02T01:04:55.030Z,17.10
2023-04-02T01:07:26.264Z,17.00
2023-04-02T01:09:57.793Z,16.90
2023-04-02T01:12:31.952Z,16.90
2023-04-02T01:15:04.095Z,16.80
2023-04-02T01:17:54.875Z,16.80
2023-04-02T01:20:47.455Z,16.80
2023-04-02T01:23:35.038Z,16.70
2023-04-02T01:26:19.026Z,16.70
2023-04-02T01:29:19.694Z,16.60
2023-04-02T01:31:49.179Z,16.60
2023-04-02T01:34:20.760Z,16.40
2023-04-02T01:36:55.277Z,16.10
2023-04-02T01:40:00.566Z,16.10
2023-04-02T01:42:34.701Z,16.10
2023-04-02T01:45:11.287Z,16.10
2023-04-02T01:47:52.388Z,16.10
2023-04-02T01:50:39.118Z,16.10
2023-04-02T01:53:13.166Z,16.00
2023-04-02T01:55:53.403Z,16.00
2023-04-02T01:58:27.328Z,16.00
2023-04-02T02:01:02.512Z,16.00
2023-04-02T02:03:31.397Z,15.90
2023-04-02T02:06:00.018Z,15.90
2023-04-02T02:08:34.778Z,15.90
2023-04-02T02:11:03.619Z,15.90
2023-04-02T02:13:32.329Z,15.90
2023-04-02T02:16:02.284Z,15.90
2023-04-02T02:18:30.238Z,15.90
2023-04-02T02:21:01.212Z,15.90
2023-04-02T02:23:30.174Z,16.00
2023-04-02T02:25:59.291Z,16.00
2023-04-02T02:28:30.323Z,16.00
2023-04-02T02:31:05.101Z,16.00
2023-04-02T02:33:43.864Z,16.10
2023-04-02T02:36:24.145Z,16.10
2023-04-02T02:39:16.395Z,16.10
2023-04-02T02:41:49.601Z,16.10
2023-04-02T02:44:36.786Z,16.20
2023-04-02T02:47:09.483Z,16.20
2023-04-02T02:49:43.366Z,16.20
2023-04-02T02:52:15.032Z,16.20
2023-04-02T02:54:54.038Z,16.20
2023-04-02T02:57:26.592Z,16.20
2023-04-02T02:59:57.447Z,16.30
2023-04-02T03:02:27.819Z,16.20
2023-04-02T03:04:59.533Z,16.20
2023-04-02T03:07:28.356Z,16.10
2023-04-02T03:10:06.111Z,16.10
2023-04-02T03:12:55.551Z,16.20
2023-04-02T03:15:39.208Z,16.20
2023-04-02T03:18:17.192Z,16.20
2023-04-02T03:20:51.460Z,16.20
2023-04-02T03:23:27.028Z,16.10
2023-04-02T03:25:58.758Z,16.10
2023-04-02T03:28:33.070Z,16.00
2023-04-02T03:31:14.194Z,16.00
2023-04-02T03:33:48.456Z,15.90
2023-04-02T03:36:28.277Z,15.90
2023-04-02T03:39:03.700Z,15.90
2023-04-02T03:41:47.558Z,15.80
2023-04-02T03:44:38.980Z,15.80
2023-04-02T03:47:13.254Z,15.80
2023-04-02T03:49:46.360Z,15.70
2023-04-02T03:52:17.527Z,15.70
2023-04-02T03:54:54.020Z,15.70
2023-04-02T03:57:24.747Z,15.70
2023-04-02T03:59:59.152Z,15.70
2023-04-02T04:02:30.806Z,15.60
2023-04-02T04:04:59.889Z,15.60
2023-04-02T04:07:40.617Z,15.60
2023-04-02T04:10:10.295Z,15.60
2023-04-02T04:12:44.150Z,15.60
2023-04-02T04:15:29.696Z,15.50
2023-04-02T04:18:22.077Z,15.50
2023-04-02T04:20:59.424Z,15.50
2023-04-02T04:23:38.575Z,15.40
2023-04-02T04:26:16.315Z,15.40
2023-04-02T04:28:50.789Z,15.40
2023-04-02T04:31:56.219Z,15.40
2023-04-02T04:34:32.575Z,15.40
2023-04-02T04:37:06.978Z,15.40
2023-04-02T04:39:49.232Z,15.50
2023-04-02T04:42:27.474Z,15.50
2023-04-02T04:45:00.211Z,15.60
2023-04-02T04:47:38.259Z,15.60
2023-04-02T04:50:15.835Z,15.70
2023-04-02T04:52:44.957Z,15.80
2023-04-02T04:55:26.060Z,15.80
2023-04-02T04:58:04.142Z,15.80
2023-04-02T05:00:36.013Z,15.80
2023-04-02T05:03:19.887Z,15.80
2023-04-02T05:05:48.114Z,15.90
2023-04-02T05:08:28.120Z,15.80
2023-04-02T05:11:17.634Z,15.70
2023-04-02T05:13:49.003Z,15.60
2023-04-02T05:16:26.905Z,15.50
2023-04-02T05:19:26.666Z,15.40
2023-04-02T05:22:05.780Z,15.30
2023-04-02T05:24:58.250Z,15.30
2023-04-02T05:27:35.798Z,15.30
2023-04-02T05:30:25.753Z,15.30
2023-04-02T05:32:58.201Z,15.30
2023-04-02T05:35:32.151Z,15.30
2023-04-02T05:38:04.378Z,15.30
2023-04-02T05:40:39.160Z,15.30
2023-04-02T05:43:10.103Z,15.30
2023-04-02T05:45:42.716Z,15.30
2023-04-02T05:48:17.915Z,15.30
2023-04-02T05:50:50.204Z,15.30
2023-04-02T05:53:26.427Z,15.30
2023-04-02T05:55:57.203Z,15.30
2023-04-02T05:58:42.556Z,15.40
2023-04-02T06:01:34.056Z,15.40
2023-04-02T06:04:10.314Z,15.40
2023-04-02T06:06:59.291Z,15.50
2023-04-02T06:09:33.718Z,15.40
2023-04-02T06:12:24.824Z,15.50
2023-04-02T06:14:53.054Z,15.50
2023-04-02T06:17:22.608Z,15.50
2023-04-02T06:19:53.502Z,15.50
2023-04-02T06:22:37.153Z,15.50
2023-04-02T06:25:13.298Z,15.50
2023-04-02T06:27:44.887Z,15.50
2023-04-02T06:33:05.422Z,15.50
2023-04-02T06:35:37.617Z,15.40
2023-04-02T06:38:09.638Z,15.40
2023-04-02T06:40:48.943Z,15.40
2023-04-02T06:43:30.308Z,15.30
2023-04-02T06:46:04.093Z,15.20
2023-04-02T06:48:36.225Z,15.20
2023-04-02T06:51:13.388Z,15.30
2023-04-02T06:53:48.185Z,15.30
2023-04-02T06:57:00.250Z,15.30
2023-04-02T06:59:29.888Z,15.30
2023-04-02T07:02:03.432Z,15.30
2023-04-02T07:04:32.024Z,15.40
2023-04-02T07:07:00.127Z,15.40
2023-04-02T07:09:33.464Z,15.40
2023-04-02T07:12:03.203Z,15.50
2023-04-02T07:14:30.753Z,15.50
2023-04-02T07:16:59.044Z,15.60
2023-04-02T07:19:27.262Z,15.60
2023-04-02T07:21:57.162Z,15.60
2023-04-02T07:24:26.740Z,15.70
2023-04-02T07:26:54.656Z,15.70
2023-04-02T07:29:22.441Z,15.70
2023-04-02T07:31:50.360Z,15.80
2023-04-02T07:34:18.208Z,15.80
2023-04-02T07:36:46.019Z,15.80
2023-04-02T07:39:13.702Z,15.80
2023-04-02T07:41:54.739Z,15.90
2023-04-02T07:44:22.579Z,15.90
2023-04-02T07:46:50.886Z,15.90
2023-04-02T07:49:18.692Z,16.00
2023-04-02T07:51:46.356Z,16.00
2023-04-02T07:54:14.116Z,16.00
2023-04-02T07:56:42.117Z,16.00
2023-04-02T07:59:10.563Z,16.10
2023-04-02T08:01:39.175Z,16.10
2023-04-02T08:04:08.343Z,16.10
2023-04-02T08:06:36.463Z,16.20
2023-04-02T08:09:04.180Z,16.20
2023-04-02T08:11:32.283Z,16.20
2023-04-02T08:14:00.737Z,16.20
2023-04-02T08:16:28.633Z,16.20
2023-04-02T08:18:56.468Z,16.20
2023-04-02T08:21:24.379Z,16.30
2023-04-02T08:23:53.642Z,16.30
2023-04-02T08:26:21.549Z,16.30
2023-04-02T08:28:49.784Z,16.30
2023-04-02T08:31:17.763Z,16.30
2023-04-02T08:33:45.423Z,16.20
2023-04-02T08:36:18.331Z,16.20
2023-04-02T08:38:46.883Z,16.20
2023-04-02T08:41:25.739Z,16.10
2023-04-02T08:44:03.430Z,16.00
2023-04-02T08:46:35.406Z,15.90
2023-04-02T08:49:07.124Z,15.80
2023-04-02T08:51:38.252Z,15.70
2023-04-02T08:54:21.499Z,15.60
2023-04-02T08:59:44.791Z,15.50
2023-04-02T09:02:33.712Z,15.40
2023-04-02T09:05:05.493Z,15.40
2023-04-02T09:07:33.809Z,15.30
2023-04-02T09:10:01.852Z,15.30
2023-04-02T09:12:43.975Z,15.30
2023-04-02T09:15:32.817Z,15.20
2023-04-02T09:18:16.661Z,15.20
2023-04-02T09:20:45.895Z,15.20
2023-04-02T09:23:17.814Z,15.20
2023-04-02T09:26:03.373Z,15.20
2023-04-02T09:28:23.822Z,15.20
2023-04-02T09:31:22.206Z,15.20
2023-04-02T09:33:53.455Z,15.30
2023-04-02T09:36:39.934Z,15.30
2023-04-02T09:39:17.651Z,15.30
2023-04-02T09:41:55.752Z,15.40
2023-04-02T09:44:23.574Z,15.50
2023-04-02T09:47:06.125Z,15.50
2023-04-02T09:49:37.267Z,15.60
2023-04-02T09:52:20.283Z,15.60
2023-04-02T09:54:52.129Z,15.70
2023-04-02T09:57:24.658Z,15.70
2023-04-02T10:00:25.945Z,15.90
2023-04-02T10:02:46.165Z,15.90
2023-04-02T10:05:30.065Z,16.00
2023-04-02T10:07:53.342Z,16.20
2023-04-02T10:10:40.856Z,16.30
2023-04-02T10:13:12.205Z,16.50
2023-04-02T10:15:43.927Z,16.70
2023-04-02T10:18:34.344Z,16.90
2023-04-02T10:21:05.351Z,17.10
2023-04-02T10:23:33.972Z,17.30
2023-04-02T10:26:14.608Z,17.40
2023-04-02T10:29:06.846Z,17.60
2023-04-02T10:32:09.216Z,17.70
2023-04-02T10:34:59.152Z,17.80
2023-04-02T10:37:46.047Z,18.00
2023-04-02T10:40:36.890Z,18.10
2023-04-02T10:43:34.210Z,18.10
2023-04-02T10:46:24.985Z,18.30
2023-04-02T10:49:14.564Z,18.40
2023-04-02T10:51:52.403Z,18.50
2023-04-02T10:54:24.557Z,18.60
2023-04-02T10:56:53.689Z,18.60
2023-04-02T10:59:37.650Z,18.70
2023-04-02T11:02:09.272Z,18.70
2023-04-02T11:04:41.053Z,18.80
2023-04-02T11:07:21.866Z,18.80
2023-04-02T11:09:53.390Z,18.90
2023-04-02T11:12:28.082Z,19.00
2023-04-02T11:14:57.003Z,19.10
2023-04-02T11:17:25.573Z,19.20
2023-04-02T11:19:53.688Z,19.30
2023-04-02T11:22:25.124Z,19.40
2023-04-02T11:24:55.779Z,19.40
2023-04-02T11:27:37.028Z,19.40
2023-04-02T11:30:27.586Z,19.40
2023-04-02T11:32:59.420Z,19.40
2023-04-02T11:35:39.641Z,19.30
2023-04-02T11:38:24.160Z,19.30
2023-04-02T11:40:56.994Z,18.80
2023-04-02T11:43:37.892Z,18.60
2023-04-02T11:46:08.897Z,18.30
2023-04-02T11:48:37.288Z,17.80
2023-04-02T11:51:27.446Z,17.50
2023-04-02T11:53:57.723Z,17.30
2023-04-02T11:56:44.454Z,17.10
2023-04-02T11:59:34.691Z,16.90
2023-04-02T12:02:27.486Z,16.80
2023-04-02T12:05:04.701Z,16.60
2023-04-02T12:07:54.665Z,16.60
2023-04-02T12:10:26.144Z,16.50
2023-04-02T12:12:53.984Z,16.50
2023-04-02T12:15:46.916Z,16.40
2023-04-02T12:18:21.887Z,16.40
2023-04-02T12:20:53.629Z,16.30
2023-04-02T12:23:25.280Z,16.30
2023-04-02T12:26:01.993Z,16.30
2023-04-02T12:28:31.756Z,16.30
2023-04-02T12:31:12.920Z,16.40
2023-04-02T12:33:42.258Z,16.50
2023-04-02T12:36:19.371Z,16.70
2023-04-02T12:38:51.177Z,16.80
2023-04-02T12:41:24.999Z,17.00
2023-04-02T12:44:02.736Z,17.20
2023-04-02T12:46:32.732Z,17.40
2023-04-02T12:49:10.359Z,17.70
2023-04-02T12:51:38.583Z,18.00
2023-04-02T12:54:07.010Z,18.30
2023-04-02T12:56:34.976Z,18.60
2023-04-02T12:59:03.079Z,18.80
2023-04-02T13:01:32.536Z,18.90
2023-04-02T13:04:09.895Z,18.80
2023-04-02T13:06:39.812Z,18.80
2023-04-02T13:09:12.996Z,18.80
2023-04-02T13:11:41.804Z,18.90
2023-04-02T13:14:16.114Z,19.00
2023-04-02T13:16:45.282Z,19.10
2023-04-02T13:19:23.365Z,19.20
2023-04-02T13:21:54.173Z,19.40
2023-04-02T13:24:24.564Z,19.60
2023-04-02T13:26:55.537Z,20.00
2023-04-02T13:29:29.623Z,20.30
2023-04-02T13:32:01.863Z,20.60
2023-04-02T13:34:30.746Z,20.80
2023-04-02T13:36:58.875Z,21.00
2023-04-02T13:39:27.510Z,21.20
2023-04-02T13:42:01.913Z,21.40
2023-04-02T13:44:36.288Z,21.60
2023-04-02T13:47:04.162Z,21.80
2023-04-02T13:49:32.404Z,21.80
2023-04-02T13:52:05.466Z,21.90
2023-04-02T13:54:37.191Z,22.10
2023-04-02T13:57:05.336Z,22.20
2023-04-02T13:59:33.026Z,22.20
2023-04-02T14:02:04.724Z,22.40
2023-04-02T14:04:36.072Z,22.10
2023-04-02T14:07:24.821Z,21.80
2023-04-02T14:10:12.936Z,21.90
2023-04-02T14:13:02.026Z,21.90
2023-04-02T14:15:39.880Z,22.10
2023-04-02T14:18:23.979Z,22.00
2023-04-02T14:20:55.270Z,22.50
2023-04-02T14:23:48.361Z,22.60
2023-04-02T14:26:29.045Z,22.80
2023-04-02T14:29:12.896Z,22.90
2023-04-02T14:31:47.379Z,23.00
2023-04-02T14:34:22.083Z,22.90
2023-04-02T14:37:22.522Z,22.50
2023-04-02T14:39:57.703Z,22.40
2023-04-02T14:42:29.414Z,22.40
2023-04-02T14:45:10.426Z,22.40
2023-04-02T14:47:41.841Z,22.20
2023-04-02T14:50:16.351Z,22.00
2023-04-02T14:52:45.511Z,21.60
2023-04-02T14:55:26.274Z,21.40
2023-04-02T14:57:58.760Z,21.20
2023-04-02T15:00:48.686Z,21.00
2023-04-02T15:06:08.086Z,20.70
2023-04-02T15:08:42.647Z,20.50
2023-04-02T15:11:14.290Z,20.40
2023-04-02T15:14:04.448Z,20.20
2023-04-02T15:16:33.483Z,20.00
2023-04-02T15:19:03.689Z,19.90
2023-04-02T15:21:55.953Z,19.80
2023-04-02T15:24:18.084Z,19.80
2023-04-02T15:27:14.723Z,19.90
2023-04-02T15:29:50.170Z,19.90
2023-04-02T15:32:36.542Z,20.00
2023-04-02T15:35:27.473Z,20.00
2023-04-02T15:38:02.380Z,20.00
2023-04-02T15:40:56.376Z,20.20
2023-04-02T15:43:34.240Z,20.50
2023-04-02T15:46:38.494Z,20.60
2023-04-02T15:49:27.129Z,20.70
2023-04-02T15:52:01.858Z,20.70
2023-04-02T15:54:39.453Z,20.50
2023-04-02T15:57:38.586Z,20.50
2023-04-02T16:00:24.429Z,20.40
2023-04-02T16:03:12.240Z,20.40
2023-04-02T16:05:50.958Z,20.40
2023-04-02T16:08:32.046Z,20.40
2023-04-02T16:11:00.102Z,20.40
2023-04-02T16:13:34.145Z,20.30
2023-04-02T16:16:33.141Z,20.30
2023-04-02T16:19:17.122Z,20.30
2023-04-02T16:22:06.882Z,20.30
2023-04-02T16:24:34.640Z,20.30
2023-04-02T16:27:15.530Z,20.30
2023-04-02T16:29:54.672Z,20.30
2023-04-02T16:32:40.850Z,20.20
2023-04-02T16:35:41.877Z,20.20
2023-04-02T16:38:37.372Z,20.20
2023-04-02T16:41:22.466Z,20.10
2023-04-02T16:43:51.869Z,20.10
2023-04-02T16:46:38.928Z,20.20
2023-04-02T16:49:10.935Z,20.30
2023-04-02T16:51:42.822Z,20.30
2023-04-02T16:54:14.332Z,20.40
2023-04-02T16:57:09.324Z,20.50
2023-04-02T16:59:47.308Z,20.50
2023-04-02T17:02:51.320Z,20.50
2023-04-02T17:05:32.650Z,20.60
2023-04-02T17:08:19.755Z,20.70
2023-04-02T17:10:54.399Z,20.90
2023-04-02T17:13:41.618Z,21.00
2023-04-02T17:16:21.297Z,21.10
2023-04-02T17:18:56.619Z,21.20
2023-04-02T17:21:27.078Z,21.20
2023-04-02T17:23:58.278Z,21.20
2023-04-02T17:26:29.962Z,21.00
2023-04-02T17:29:01.013Z,20.90
2023-04-02T17:31:37.272Z,20.80
2023-04-02T17:34:14.086Z,20.60
2023-04-02T17:36:51.409Z,20.50
2023-04-02T17:39:22.758Z,20.30
2023-04-02T17:42:10.598Z,20.10
2023-04-02T17:45:00.710Z,19.90
2023-04-02T17:48:15.662Z,19.80
2023-04-02T17:51:07.378Z,19.60
2023-04-02T17:53:55.908Z,19.40
2023-04-02T17:56:42.064Z,19.20
2023-04-02T17:59:34.612Z,19.00
2023-04-02T18:02:17.942Z,18.90
2023-04-02T18:04:58.513Z,18.70
2023-04-02T18:07:33.080Z,18.50
2023-04-02T18:10:06.898Z,18.40
2023-04-02T18:12:38.657Z,18.30
2023-04-02T18:15:40.467Z,18.10
2023-04-02T18:18:31.496Z,18.00
2023-04-02T18:21:22.544Z,17.90
2023-04-02T18:24:15.376Z,17.80
2023-04-02T18:27:02.759Z,17.70
2023-04-02T18:29:51.444Z,17.60
2023-04-02T18:32:38.717Z,17.50
2023-04-02T18:35:19.696Z,17.40
2023-04-02T18:38:06.670Z,17.30
2023-04-02T18:41:13.683Z,17.30
2023-04-02T18:44:17.759Z,17.30
2023-04-02T18:46:52.843Z,17.20
2023-04-02T18:49:33.898Z,17.20
2023-04-02T18:52:04.285Z,17.10
2023-04-02T18:54:38.797Z,17.10
2023-04-02T18:57:29.106Z,17.10
2023-04-02T19:00:31.443Z,17.10
2023-04-02T19:03:21.705Z,17.00
2023-04-02T19:05:53.285Z,16.90
2023-04-02T19:08:36.583Z,16.90
2023-04-02T19:11:14.060Z,16.90
2023-04-02T19:13:43.451Z,16.90
2023-04-02T19:16:37.849Z,16.80
2023-04-02T19:19:12.516Z,16.80
2023-04-02T19:22:01.019Z,16.80
2023-04-02T19:24:44.903Z,16.80
2023-04-02T19:27:33.135Z,16.70
2023-04-02T19:30:11.367Z,16.70
2023-04-02T19:32:52.134Z,16.70
2023-04-02T19:35:39.294Z,16.70
2023-04-02T19:38:39.968Z,16.70
2023-04-02T19:41:38.022Z,16.70
2023-04-02T19:44:11.272Z,16.70
2023-04-02T19:46:39.730Z,16.60
2023-04-02T19:49:17.251Z,16.60
2023-04-02T19:51:44.829Z,16.60
2023-04-02T19:54:13.157Z,16.60
2023-04-02T19:56:42.517Z,16.60
2023-04-02T19:59:18.086Z,16.60
2023-04-02T20:01:40.624Z,16.60
2023-04-02T20:04:09.308Z,16.60
2023-04-02T20:06:39.320Z,16.60
2023-04-02T20:09:11.289Z,16.60
2023-04-02T20:11:39.667Z,16.60
2023-04-02T20:14:07.574Z,16.50
2023-04-02T20:16:37.117Z,16.50
2023-04-02T20:19:05.054Z,16.50
2023-04-02T20:21:34.517Z,16.50
2023-04-02T20:24:02.842Z,16.50
2023-04-02T20:26:30.577Z,16.50
2023-04-02T20:28:58.360Z,16.50
2023-04-02T20:31:26.572Z,16.50
2023-04-02T20:33:58.782Z,16.50
2023-04-02T20:36:27.538Z,16.50
2023-04-02T20:38:55.551Z,16.50
2023-04-02T20:41:24.046Z,16.50
2023-04-02T20:43:51.714Z,16.40
2023-04-02T20:46:19.756Z,16.40
2023-04-02T20:48:47.507Z,16.40
2023-04-02T20:51:16.331Z,16.40
2023-04-02T20:53:44.174Z,16.40
2023-04-02T20:56:14.930Z,16.30
2023-04-02T20:58:42.571Z,16.30
2023-04-02T21:01:16.473Z,16.30
2023-04-02T21:03:47.267Z,16.30
2023-04-02T21:06:18.958Z,16.20
2023-04-02T21:08:46.789Z,16.20
2023-04-02T21:11:15.972Z,16.20
2023-04-02T21:13:44.598Z,16.20
2023-04-02T21:16:20.657Z,16.20
2023-04-02T21:18:53.239Z,16.20
2023-04-02T21:21:21.960Z,16.20
2023-04-02T21:23:56.342Z,16.20
2023-04-02T21:26:24.686Z,16.20
2023-04-02T21:28:52.277Z,16.30
2023-04-02T21:31:23.663Z,16.30
2023-04-02T21:33:53.699Z,16.30
2023-04-02T21:36:36.972Z,16.30
2023-04-02T21:39:08.501Z,16.40
2023-04-02T21:41:41.722Z,16.40
2023-04-02T21:44:12.206Z,16.30
2023-04-02T21:46:42.763Z,16.30
2023-04-02T21:49:16.521Z,16.30
2023-04-02T21:51:46.452Z,16.30
2023-04-02T21:54:14.297Z,16.20
2023-04-02T21:56:45.417Z,16.20
2023-04-02T21:59:15.035Z,16.20
2023-04-02T22:01:48.804Z,16.20
2023-04-02T22:04:20.036Z,16.20
2023-04-02T22:06:48.554Z,16.20
2023-04-02T22:09:19.026Z,16.20
2023-04-02T22:11:50.137Z,16.20
2023-04-02T22:14:19.437Z,16.20
2023-04-02T22:16:47.461Z,16.20
2023-04-02T22:19:17.052Z,16.10
2023-04-02T22:21:46.111Z,16.10
2023-04-02T22:24:16.341Z,16.10
2023-04-02T22:26:52.319Z,16.10
2023-04-02T22:29:20.065Z,16.00
2023-04-02T22:31:48.184Z,16.00
2023-04-02T22:34:15.909Z,16.00
2023-04-02T22:36:43.412Z,15.90
2023-04-02T22:39:12.593Z,15.90
2023-04-02T22:41:40.445Z,15.90
2023-04-02T22:44:09.049Z,15.80
2023-04-02T22:46:36.896Z,15.80
2023-04-02T22:49:05.264Z,15.80
2023-04-02T22:51:33.773Z,15.70
2023-04-02T22:54:01.665Z,15.60
2023-04-02T22:56:32.460Z,15.60
2023-04-02T22:59:00.476Z,15.50
2023-04-02T23:01:36.775Z,15.50
2023-04-02T23:04:05.525Z,15.50
2023-04-02T23:06:33.884Z,15.40
2023-04-02T23:09:01.703Z,15.50
2023-04-02T23:11:29.464Z,15.40
2023-04-02T23:13:58.116Z,15.40
2023-04-02T23:16:28.546Z,15.40
2023-04-02T23:18:57.354Z,15.40
2023-04-02T23:21:32.961Z,15.30
2023-04-02T23:24:00.559Z,15.30
2023-04-02T23:26:31.069Z,15.30
2023-04-02T23:29:00.122Z,15.30
2023-04-02T23:31:28.879Z,15.30
2023-04-02T23:33:56.949Z,15.30
2023-04-02T23:36:27.404Z,15.30
2023-04-02T23:38:57.836Z,15.20
2023-04-02T23:41:27.323Z,15.20
2023-04-02T23:43:58.823Z,15.20
2023-04-02T23:46:28.154Z,15.20
2023-04-02T23:48:57.011Z,15.20
2023-04-02T23:51:26.110Z,15.20
2023-04-02T23:53:55.743Z,15.20
2023-04-02T23:56:26.709Z,15.20
2023-04-02T23:58:57.462Z,15.10
